Time;durP1;ratioP1;P1;durP2;ratioP2;P2;SDS_P1;SDS_P2;PMS_P1;PMS_P2;Temp;Humidity;BMP_temperature;BMP_pressure;BME280_temperature;BME280_humidity;BME280_pressure;Samples;Min_cycle;Max_cycle;Signal;HPM_P1;HPM_P2
2022/04/20 00:00:16;;;;;;;3.60;3.30;;;4.50;99.90;;;;;;5060657;28;20180;-73
2022/04/20 00:02:42;;;;;;;3.60;3.40;;;4.50;99.90;;;;;;5065705;28;20545;-73
2022/04/20 00:05:07;;;;;;;3.37;3.17;;;4.40;99.90;;;;;;5056968;28;20206;-74
2022/04/20 00:07:33;;;;;;;5.20;3.70;;;4.30;99.90;;;;;;5051720;28;20188;-74
2022/04/20 00:09:59;;;;;;;3.83;3.53;;;4.20;99.90;;;;;;5034399;28;20266;-74
2022/04/20 00:12:25;;;;;;;3.83;3.50;;;4.20;99.90;;;;;;5059668;28;20545;-74
2022/04/20 00:14:51;;;;;;;4.07;3.63;;;4.10;99.90;;;;;;5055881;28;20204;-75
2022/04/20 00:17:17;;;;;;;4.03;3.73;;;4.10;99.90;;;;;;5051576;28;20222;-73
2022/04/20 00:19:43;;;;;;;3.77;3.47;;;4.10;99.90;;;;;;5062506;28;20660;-73
2022/04/20 00:22:09;;;;;;;4.00;3.63;;;4.00;99.90;;;;;;5056687;28;20184;-73
2022/04/20 00:24:34;;;;;;;3.80;3.50;;;4.10;99.90;;;;;;5057672;28;20210;-73
2022/04/20 00:27:00;;;;;;;3.50;3.30;;;4.10;99.90;;;;;;5058523;28;20685;-73
2022/04/20 00:29:25;;;;;;;3.67;3.37;;;4.10;99.90;;;;;;5058661;28;20693;-74
2022/04/20 00:31:51;;;;;;;3.87;3.57;;;4.00;99.90;;;;;;5053090;28;20557;-74
2022/04/20 00:34:16;;;;;;;3.57;3.37;;;4.00;99.90;;;;;;5056251;28;20688;-74
2022/04/20 00:36:42;;;;;;;4.17;3.77;;;4.00;99.90;;;;;;5055028;28;20362;-74
2022/04/20 00:39:08;;;;;;;3.57;3.27;;;4.00;99.90;;;;;;5061898;28;20183;-74
2022/04/20 00:41:34;;;;;;;4.00;3.60;;;3.90;99.90;;;;;;5056681;28;20238;-73
2022/04/20 00:44:01;;;;;;;3.13;2.90;;;3.80;99.90;;;;;;5057140;28;20215;-73
2022/04/20 00:46:28;;;;;;;3.87;3.47;;;3.80;99.90;;;;;;5048558;28;20270;-73
2022/04/20 00:48:55;;;;;;;4.43;3.43;;;3.70;99.90;;;;;;5048672;28;20172;-73
2022/04/20 00:51:21;;;;;;;3.50;3.20;;;3.70;99.90;;;;;;5052115;28;20258;-77
2022/04/20 00:53:46;;;;;;;3.37;3.07;;;3.60;99.90;;;;;;5049571;28;20232;-74
2022/04/20 00:56:12;;;;;;;3.07;2.80;;;3.50;99.90;;;;;;5044749;28;20204;-74
2022/04/20 00:58:41;;;;;;;3.30;3.00;;;3.50;99.90;;;;;;5045072;28;20193;-74
2022/04/20 01:01:08;;;;;;;3.50;3.20;;;3.50;99.90;;;;;;5045700;28;20175;-74
2022/04/20 01:03:33;;;;;;;4.33;2.90;;;3.50;99.90;;;;;;5044526;28;20322;-74
2022/04/20 01:05:59;;;;;;;2.73;2.53;;;3.60;99.90;;;;;;5049277;28;20196;-74
2022/04/20 01:08:24;;;;;;;3.33;3.03;;;3.50;99.90;;;;;;5045124;28;20173;-74
2022/04/20 01:10:50;;;;;;;3.40;3.10;;;3.50;99.90;;;;;;5045269;28;20184;-73
2022/04/20 01:13:16;;;;;;;2.73;2.63;;;3.40;99.90;;;;;;5045778;28;20188;-73
2022/04/20 01:15:42;;;;;;;3.17;2.87;;;3.40;99.90;;;;;;5046444;28;20179;-74
2022/04/20 01:18:15;;;;;;;4.00;2.93;;;3.30;99.90;;;;;;5046458;28;20200;-74
2022/04/20 01:20:41;;;;;;;3.30;3.00;;;3.20;99.90;;;;;;5044088;28;20171;-74
2022/04/20 01:23:07;;;;;;;2.83;2.63;;;3.20;99.90;;;;;;5042336;28;20192;-74
2022/04/20 01:25:33;;;;;;;3.13;2.83;;;3.10;99.90;;;;;;5046025;28;20220;-74
2022/04/20 01:28:01;;;;;;;3.23;2.80;;;3.10;99.90;;;;;;5059152;28;20186;-74
2022/04/20 01:30:27;;;;;;;3.27;3.07;;;3.10;99.90;;;;;;5051950;28;20234;-73
2022/04/20 01:32:55;;;;;;;4.80;2.83;;;3.00;99.90;;;;;;5050313;28;20188;-74
2022/04/20 01:35:21;;;;;;;7.37;3.07;;;3.00;99.90;;;;;;5050788;28;20204;-74
2022/04/20 01:37:47;;;;;;;2.90;2.70;;;3.00;99.90;;;;;;5056444;28;20199;-72
2022/04/20 01:40:13;;;;;;;3.50;3.20;;;2.90;99.90;;;;;;5055203;28;20188;-72
2022/04/20 01:42:39;;;;;;;2.97;2.77;;;2.90;99.90;;;;;;5054390;28;20171;-72
2022/04/20 01:45:05;;;;;;;3.23;3.03;;;2.90;99.90;;;;;;5053806;28;20203;-72
2022/04/20 01:47:30;;;;;;;2.93;2.73;;;2.90;99.90;;;;;;5045368;28;20188;-72
2022/04/20 01:49:56;;;;;;;3.30;3.00;;;2.90;99.90;;;;;;5052763;28;20739;-74
2022/04/20 01:52:21;;;;;;;5.07;2.87;;;2.90;99.90;;;;;;5058030;28;20198;-73
2022/04/20 01:54:47;;;;;;;2.80;2.60;;;2.90;99.90;;;;;;5051321;28;20230;-73
2022/04/20 01:57:13;;;;;;;3.03;2.83;;;3.00;99.90;;;;;;5052422;28;20266;-73
2022/04/20 01:59:38;;;;;;;3.00;2.80;;;3.00;99.90;;;;;;5050588;28;20264;-73
2022/04/20 02:04:48;;;;;;;3.03;2.83;;;3.10;99.90;;;;;;5050466;28;20286;-73
2022/04/20 02:07:14;;;;;;;4.03;3.20;;;3.10;99.90;;;;;;5052939;28;20199;-73
2022/04/20 02:09:39;;;;;;;3.03;2.70;;;3.00;99.90;;;;;;5058729;28;20207;-73
2022/04/20 02:12:05;;;;;;;3.20;3.00;;;3.00;99.90;;;;;;5048928;28;20270;-74
2022/04/20 02:14:33;;;;;;;4.57;3.30;;;2.90;99.90;;;;;;5057646;28;20203;-74
2022/04/20 02:16:58;;;;;;;3.17;2.97;;;2.90;99.90;;;;;;5047975;28;20204;-73
2022/04/20 02:19:24;;;;;;;3.33;3.00;;;2.90;99.90;;;;;;5048656;28;20191;-73
2022/04/20 02:21:50;;;;;;;3.10;2.90;;;2.80;99.90;;;;;;5042053;28;20188;-73
2022/04/20 02:24:16;;;;;;;3.83;3.13;;;2.80;99.90;;;;;;5055481;28;20204;-73
2022/04/20 02:26:41;;;;;;;4.27;3.40;;;2.70;99.90;;;;;;5051410;28;20189;-73
2022/04/20 02:29:07;;;;;;;3.77;3.47;;;2.70;99.90;;;;;;5051564;28;20179;-73
2022/04/20 02:31:33;;;;;;;3.33;3.13;;;2.60;99.90;;;;;;5058371;28;20191;-73
2022/04/20 02:33:59;;;;;;;4.33;3.50;;;2.50;99.90;;;;;;5049664;28;20214;-73
2022/04/20 02:36:24;;;;;;;3.43;3.23;;;2.50;99.90;;;;;;5046787;28;20583;-73
2022/04/20 02:38:50;;;;;;;4.80;3.50;;;2.40;99.90;;;;;;5048397;28;20175;-73
2022/04/20 02:41:16;;;;;;;3.03;2.83;;;2.40;99.90;;;;;;5045931;28;20184;-73
2022/04/20 02:43:42;;;;;;;3.20;3.00;;;2.40;99.90;;;;;;5049274;28;20195;-73
2022/04/20 02:46:08;;;;;;;3.50;3.30;;;2.50;99.90;;;;;;5050381;28;20183;-73
2022/04/20 02:48:35;;;;;;;3.60;3.30;;;2.40;99.90;;;;;;5041535;28;20270;-73
2022/04/20 02:51:00;;;;;;;3.40;3.10;;;2.50;99.90;;;;;;5056241;28;20180;-73
2022/04/20 02:53:26;;;;;;;4.10;3.80;;;2.60;99.90;;;;;;5053810;28;20190;-73
2022/04/20 02:55:52;;;;;;;4.20;3.40;;;2.70;99.90;;;;;;5045526;28;20626;-73
2022/04/20 02:58:17;;;;;;;3.60;3.40;;;2.70;99.90;;;;;;5055031;28;20215;-73
2022/04/20 03:00:43;;;;;;;3.70;3.50;;;2.60;99.90;;;;;;5052786;28;20232;-73
2022/04/20 03:03:09;;;;;;;5.27;3.57;;;2.50;99.90;;;;;;5045105;28;20195;-71
2022/04/20 03:05:34;;;;;;;4.03;3.60;;;2.50;99.90;;;;;;5053585;28;20235;-71
2022/04/20 03:08:00;;;;;;;3.63;3.33;;;2.40;99.90;;;;;;5050933;28;20599;-72
2022/04/20 03:10:26;;;;;;;4.00;3.63;;;2.20;99.90;;;;;;5042412;28;20258;-72
2022/04/20 03:12:52;;;;;;;4.67;3.37;;;2.10;99.90;;;;;;5049532;28;20183;-72
2022/04/20 03:15:18;;;;;;;3.57;3.37;;;2.00;99.90;;;;;;5046338;28;20654;-72
2022/04/20 03:17:43;;;;;;;4.10;3.77;;;1.90;99.90;;;;;;5049339;28;20214;-72
2022/04/20 03:20:10;;;;;;;4.00;3.70;;;1.80;99.90;;;;;;5051320;28;20179;-72
2022/04/20 03:22:36;;;;;;;3.30;3.10;;;1.80;99.90;;;;;;5049088;28;20180;-71
2022/04/20 03:25:02;;;;;;;4.07;3.77;;;1.90;99.90;;;;;;5044300;28;20262;-71
2022/04/20 03:27:27;;;;;;;3.70;3.47;;;2.00;99.90;;;;;;5037142;28;20184;-71
2022/04/20 03:29:53;;;;;;;3.47;3.10;;;2.00;99.90;;;;;;5047288;28;20183;-72
2022/04/20 03:32:19;;;;;;;3.53;3.23;;;2.00;99.90;;;;;;5049016;28;20271;-73
2022/04/20 03:34:45;;;;;;;4.37;3.97;;;1.90;99.90;;;;;;5056938;28;20210;-73
2022/04/20 03:37:11;;;;;;;3.50;3.30;;;1.80;99.90;;;;;;5049128;28;20203;-72
2022/04/20 03:39:37;;;;;;;4.00;3.60;;;1.70;99.90;;;;;;5054464;28;20997;-72
2022/04/20 03:42:04;;;;;;;3.67;3.43;;;1.70;99.90;;;;;;5051352;28;20188;-73
2022/04/20 03:44:30;;;;;;;4.77;3.87;;;1.60;99.90;;;;;;5046476;28;20196;-73
2022/04/20 03:46:55;;;;;;;4.43;4.03;;;1.60;99.90;;;;;;5040973;28;20695;-72
2022/04/20 03:49:21;;;;;;;4.60;3.60;;;1.50;99.90;;;;;;5027808;28;20196;-72
2022/04/20 03:51:47;;;;;;;4.10;3.77;;;1.50;99.90;;;;;;5042056;28;20260;-72
2022/04/20 03:54:13;;;;;;;3.80;3.50;;;1.40;99.90;;;;;;5035993;28;20679;-72
2022/04/20 03:59:23;;;;;;;3.97;3.67;;;1.40;99.90;;;;;;5048039;28;20229;-72
2022/04/20 04:01:49;;;;;;;4.40;4.07;;;1.40;99.90;;;;;;5046378;28;20280;-71
2022/04/20 04:04:15;;;;;;;3.77;3.53;;;1.40;99.90;;;;;;5044966;28;20201;-72
2022/04/20 04:06:40;;;;;;;4.23;3.87;;;1.50;99.90;;;;;;5049306;28;20214;-70
2022/04/20 04:09:06;;;;;;;8.10;4.13;;;1.60;99.90;;;;;;5052911;28;20203;-70
2022/04/20 04:11:32;;;;;;;4.57;3.73;;;1.70;99.90;;;;;;5046800;28;20279;-70
2022/04/20 04:13:57;;;;;;;4.20;3.90;;;1.80;99.90;;;;;;5051293;28;20603;-70
2022/04/20 04:16:23;;;;;;;4.07;3.67;;;1.80;99.90;;;;;;5050524;28;20199;-70
2022/04/20 04:18:48;;;;;;;4.17;3.87;;;1.90;99.90;;;;;;5048773;28;20180;-71
2022/04/20 04:21:14;;;;;;;4.23;3.90;;;1.80;99.90;;;;;;5048127;28;20265;-72
2022/04/20 04:23:40;;;;;;;6.43;3.97;;;1.80;99.90;;;;;;5050792;28;20578;-72
2022/04/20 04:26:05;;;;;;;3.83;3.57;;;1.80;99.90;;;;;;5045542;28;20180;-72
2022/04/20 04:28:31;;;;;;;4.13;3.63;;;1.60;99.90;;;;;;5045304;28;20217;-72
2022/04/20 04:30:56;;;;;;;6.50;4.80;;;1.50;99.90;;;;;;5045834;28;20183;-72
2022/04/20 04:33:22;;;;;;;4.50;4.10;;;1.50;99.90;;;;;;5039507;28;20172;-72
2022/04/20 04:35:47;;;;;;;3.90;3.60;;;1.40;99.90;;;;;;5045165;28;20175;-72
2022/04/20 04:38:15;;;;;;;3.87;3.57;;;1.40;99.90;;;;;;5045358;28;20227;-72
2022/04/20 04:40:41;;;;;;;4.60;4.13;;;1.50;99.90;;;;;;5046568;28;20612;-71
2022/04/20 04:43:07;;;;;;;5.50;4.43;;;1.50;99.90;;;;;;5049179;28;20202;-71
2022/04/20 04:51:01;;;;;;;4.10;3.90;;;1.60;99.90;;;;;;5052027;28;20202;-70
2022/04/20 04:53:27;;;;;;;3.60;3.40;;;1.70;99.90;;;;;;5053378;28;20172;-70
2022/04/20 04:55:52;;;;;;;4.73;4.33;;;1.80;99.90;;;;;;5053090;28;20184;-71
2022/04/20 04:58:18;;;;;;;4.30;3.97;;;1.90;99.90;;;;;;5055257;28;20701;-71
2022/04/20 05:00:44;;;;;;;4.40;4.00;;;1.90;99.90;;;;;;5057048;28;20241;-71
2022/04/20 05:03:10;;;;;;;4.57;4.13;;;1.90;99.90;;;;;;5054528;28;20187;-72
2022/04/20 05:05:37;;;;;;;5.50;4.70;;;2.00;99.90;;;;;;5047859;28;20289;-71
2022/04/20 05:08:02;;;;;;;4.47;4.07;;;2.20;99.90;;;;;;5055333;28;20222;-71
2022/04/20 05:10:28;;;;;;;5.00;4.33;;;2.40;99.90;;;;;;5058516;28;20184;-71
2022/04/20 05:12:53;;;;;;;5.70;4.73;;;2.50;99.90;;;;;;5049656;28;20635;-70
2022/04/20 05:15:19;;;;;;;7.23;4.07;;;2.50;99.90;;;;;;5051874;28;20212;-71
2022/04/20 05:17:45;;;;;;;4.17;3.83;;;2.60;99.90;;;;;;5049157;28;20557;-73
2022/04/20 05:20:12;;;;;;;4.57;4.17;;;2.70;99.90;;;;;;5039501;28;20232;-70
2022/04/20 05:22:37;;;;;;;5.20;4.80;;;2.70;99.90;;;;;;5051496;28;20180;-70
2022/04/20 05:25:03;;;;;;;5.83;4.80;;;2.60;99.90;;;;;;5048794;28;20203;-71
2022/04/20 05:27:29;;;;;;;4.80;4.40;;;2.60;99.90;;;;;;5054747;28;20200;-71
2022/04/20 05:29:54;;;;;;;4.83;4.43;;;2.70;99.90;;;;;;5052210;28;20678;-71
2022/04/20 05:32:20;;;;;;;4.53;4.23;;;2.80;99.90;;;;;;5052317;28;20263;-72
2022/04/20 05:34:46;;;;;;;4.43;4.03;;;2.80;99.90;;;;;;5055161;28;20247;-71
2022/04/20 05:42:39;;;;;;;3.97;3.73;;;2.90;99.90;;;;;;5052651;28;20551;-71
2022/04/20 05:45:05;;;;;;;4.73;4.33;;;2.90;99.90;;;;;;5055404;28;20229;-70
2022/04/20 05:47:32;;;;;;;6.10;5.60;;;2.90;99.90;;;;;;5055101;28;20188;-73
2022/04/20 05:49:58;;;;;;;5.00;4.60;;;3.00;99.90;;;;;;5052515;28;20236;-72
2022/04/20 05:52:23;;;;;;;5.67;4.60;;;3.00;99.90;;;;;;5055009;28;20179;-71
2022/04/20 05:54:49;;;;;;;4.73;4.33;;;3.10;99.90;;;;;;5055306;28;20729;-70
2022/04/20 05:57:14;;;;;;;4.80;4.40;;;3.20;99.90;;;;;;5049689;28;20249;-72
2022/04/20 05:59:40;;;;;;;4.50;4.17;;;3.30;99.90;;;;;;5053295;28;20184;-74
2022/04/20 06:02:06;;;;;;;4.77;4.37;;;3.40;99.90;;;;;;5048636;28;20183;-71
2022/04/20 06:04:31;;;;;;;4.57;4.17;;;3.40;99.90;;;;;;5055005;28;20187;-70
2022/04/20 06:06:57;;;;;;;5.07;4.47;;;3.50;99.90;;;;;;5048970;28;20556;-70
2022/04/20 06:09:23;;;;;;;5.03;4.63;;;3.50;99.90;;;;;;5044299;28;20184;-70
2022/04/20 06:11:50;;;;;;;4.53;4.17;;;3.70;99.90;;;;;;5028964;28;20176;-70
2022/04/20 06:14:15;;;;;;;4.80;4.40;;;3.80;99.90;;;;;;5050382;28;20596;-72
2022/04/20 06:16:41;;;;;;;5.50;4.63;;;3.90;99.90;;;;;;5047713;28;20199;-72
2022/04/20 06:19:07;;;;;;;4.40;3.90;;;4.00;99.90;;;;;;5042520;28;20242;-70
2022/04/20 06:21:33;;;;;;;5.00;4.50;;;4.20;99.90;;;;;;5053668;28;20634;-71
2022/04/20 06:24:00;;;;;;;4.53;4.23;;;4.20;99.90;;;;;;5045501;28;20214;-70
2022/04/20 06:26:26;;;;;;;4.50;4.20;;;4.20;99.90;;;;;;5044182;28;20179;-70
2022/04/20 06:28:51;;;;;;;5.10;4.60;;;4.30;99.90;;;;;;5044907;28;20187;-70
2022/04/20 06:31:17;;;;;;;4.67;4.23;;;4.30;99.90;;;;;;5038673;28;20184;-70
2022/04/20 06:33:42;;;;;;;5.03;4.60;;;4.40;99.90;;;;;;5043427;28;20275;-70
2022/04/20 06:36:08;;;;;;;5.63;4.20;;;4.50;99.90;;;;;;5048514;28;20700;-70
2022/04/20 06:38:33;;;;;;;4.23;4.00;;;4.70;99.90;;;;;;5045324;28;20180;-70
2022/04/20 06:40:59;;;;;;;4.50;4.20;;;4.80;99.90;;;;;;5044479;28;20189;-70
2022/04/20 06:43:25;;;;;;;5.50;5.00;;;4.90;99.90;;;;;;5050387;28;20220;-70
2022/04/20 06:45:51;;;;;;;4.27;3.97;;;5.00;99.90;;;;;;5042016;28;20465;-70
2022/04/20 06:48:17;;;;;;;5.13;4.57;;;5.10;99.90;;;;;;5049732;28;20262;-71
2022/04/20 06:50:43;;;;;;;4.50;4.20;;;5.20;99.90;;;;;;5049506;28;20284;-74
2022/04/20 06:58:39;;;;;;;4.80;4.23;;;5.60;99.90;;;;;;5046568;28;20316;-73
2022/04/20 07:01:07;;;;;;;4.40;4.00;;;5.60;99.90;;;;;;5054340;28;20572;-71
2022/04/20 07:03:33;;;;;;;5.00;4.50;;;5.70;99.90;;;;;;5054701;28;20176;-72
2022/04/20 07:05:59;;;;;;;4.50;4.10;;;5.70;99.90;;;;;;5049364;28;20222;-72
2022/04/20 07:08:26;;;;;;;4.50;4.10;;;5.80;99.90;;;;;;5047519;28;20176;-73
2022/04/20 07:10:52;;;;;;;4.73;4.30;;;5.90;99.90;;;;;;5043191;28;20195;-73
2022/04/20 07:13:19;;;;;;;4.63;4.33;;;5.90;99.90;;;;;;5042627;28;20184;-72
2022/04/20 07:15:45;;;;;;;4.90;4.40;;;6.10;99.90;;;;;;5054933;28;20207;-72
2022/04/20 07:18:11;;;;;;;5.20;4.80;;;6.20;99.90;;;;;;5049786;28;20671;-70
2022/04/20 07:20:36;;;;;;;4.80;4.10;;;6.30;99.90;;;;;;5047024;28;20219;-74
2022/04/20 07:23:02;;;;;;;6.17;4.90;;;6.40;99.90;;;;;;5024542;28;20180;-75
2022/04/20 07:25:29;;;;;;;4.27;3.87;;;6.50;99.90;;;;;;5048157;28;20283;-73
2022/04/20 07:27:55;;;;;;;4.80;4.33;;;6.60;99.90;;;;;;5029968;28;20241;-73
2022/04/20 07:30:21;;;;;;;4.77;4.40;;;6.60;99.90;;;;;;5040199;28;20421;-72
2022/04/20 07:32:48;;;;;;;4.87;4.20;;;6.80;99.90;;;;;;5029171;28;20553;-71
2022/04/20 07:35:14;;;;;;;7.20;4.13;;;7.00;99.90;;;;;;5040659;28;20200;-71
2022/04/20 07:37:40;;;;;;;4.40;4.00;;;7.10;99.90;;;;;;5046348;28;20230;-74
2022/04/20 07:40:06;;;;;;;4.30;4.00;;;7.30;99.90;;;;;;5052231;28;20428;-73
2022/04/20 07:42:32;;;;;;;4.40;4.10;;;7.40;99.90;;;;;;5042693;28;20188;-74
2022/04/20 07:44:59;;;;;;;4.45;4.05;;;7.50;99.90;;;;;;5050128;28;20417;-73
2022/04/20 07:47:27;;;;;;;5.97;4.33;;;7.50;99.90;;;;;;5050069;28;20226;-73
2022/04/20 07:52:42;;;;;;;4.47;4.00;;;7.80;99.90;;;;;;5056175;28;20693;-76
2022/04/20 07:55:18;;;;;;;5.47;4.07;;;8.00;99.90;;;;;;5044027;28;20211;-75
2022/04/20 07:57:45;;;;;;;4.80;4.37;;;8.20;99.90;;;;;;5053449;28;20195;-75
2022/04/20 08:00:13;;;;;;;4.30;3.90;;;8.40;99.90;;;;;;5041525;28;20264;-72
2022/04/20 08:02:39;;;;;;;4.32;4.03;;;8.50;99.90;;;;;;5051366;28;20178;-73
2022/04/20 08:05:05;;;;;;;4.28;3.92;;;8.60;99.90;;;;;;5038125;28;20200;-75
2022/04/20 08:07:32;;;;;;;3.85;3.58;;;8.70;99.90;;;;;;5055547;28;20180;-76
2022/04/20 08:09:57;;;;;;;5.15;3.88;;;8.80;99.90;;;;;;5049961;28;20172;-75
2022/04/20 08:12:24;;;;;;;4.10;3.67;;;8.90;99.90;;;;;;5058917;28;20233;-75
2022/04/20 08:14:51;;;;;;;4.10;3.67;;;9.00;99.90;;;;;;5049471;28;20207;-76
2022/04/20 08:17:17;;;;;;;3.97;3.72;;;9.10;99.90;;;;;;5047894;28;20188;-76
2022/04/20 08:19:43;;;;;;;3.58;3.30;;;9.20;99.90;;;;;;5050786;28;20171;-76
2022/04/20 08:22:08;;;;;;;4.10;3.50;;;9.20;99.90;;;;;;5050695;28;20199;-75
2022/04/20 08:24:34;;;;;;;3.53;3.22;;;9.30;99.90;;;;;;5049709;28;20232;-76
2022/04/20 08:27:00;;;;;;;3.67;3.47;;;9.40;99.90;;;;;;5049612;28;20218;-77
2022/04/20 08:29:25;;;;;;;3.22;3.03;;;9.60;99.90;;;;;;5050314;28;20184;-76
2022/04/20 08:31:51;;;;;;;3.45;3.25;;;9.80;99.90;;;;;;5048884;28;20244;-76
2022/04/20 08:34:17;;;;;;;4.72;4.32;;;9.90;99.90;;;;;;5045641;28;20211;-75
2022/04/20 08:36:43;;;;;;;3.33;3.03;;;10.00;99.90;;;;;;5054900;28;20294;-75
2022/04/20 08:39:08;;;;;;;3.80;3.50;;;10.00;97.10;;;;;;5051598;28;20185;-75
2022/04/20 08:41:35;;;;;;;4.03;3.63;;;10.10;94.80;;;;;;5029402;28;20267;-75
2022/04/20 08:44:02;;;;;;;4.25;3.85;;;10.20;95.20;;;;;;5047427;28;20199;-76
2022/04/20 08:46:37;;;;;;;5.05;4.38;;;10.20;94.70;;;;;;5049261;28;20180;-75
2022/04/20 08:49:04;;;;;;;4.28;3.88;;;10.20;94.80;;;;;;5051630;28;20685;-76
2022/04/20 08:52:37;;;;;;;7.13;3.33;;;10.40;95.50;;;;;;5052432;28;20196;-75
2022/04/20 08:54:17;;;;;;;3.65;3.45;;;10.60;95.00;;;;;;5049016;28;20373;-75
2022/04/20 08:59:28;;;;;;;3.92;3.72;;;10.60;91.90;;;;;;5052563;28;20552;-76
2022/04/20 09:01:53;;;;;;;4.18;3.75;;;10.70;91.90;;;;;;5050595;28;20176;-78
2022/04/20 09:04:19;;;;;;;3.92;3.65;;;10.90;91.60;;;;;;5052860;28;20292;-78
2022/04/20 09:06:45;;;;;;;4.43;4.13;;;11.10;91.60;;;;;;5053294;28;20424;-77
2022/04/20 09:09:10;;;;;;;6.28;3.70;;;11.50;90.20;;;;;;5045622;28;20199;-78
2022/04/20 09:11:37;;;;;;;4.13;3.83;;;11.80;85.10;;;;;;5043701;28;20176;-78
2022/04/20 09:14:13;;;;;;;4.05;3.75;;;12.60;85.00;;;;;;5049558;28;20208;-78
2022/04/20 09:16:39;;;;;;;4.00;3.70;;;14.30;77.10;;;;;;5049626;28;20293;-79
2022/04/20 09:19:06;;;;;;;4.40;4.00;;;16.10;70.30;;;;;;5044096;28;20655;-78
2022/04/20 09:21:34;;;;;;;4.13;3.83;;;17.60;61.60;;;;;;5044583;28;20264;-77
2022/04/20 09:24:07;;;;;;;3.30;3.00;;;18.70;56.30;;;;;;5042018;28;20448;-78
2022/04/20 09:26:33;;;;;;;3.47;3.17;;;20.40;53.90;;;;;;5052464;28;20206;-78
2022/04/20 09:29:07;;;;;;;4.72;3.53;;;22.10;47.90;;;;;;5045935;28;20663;-78
2022/04/20 09:31:43;;;;;;;2.90;2.70;;;24.40;45.40;;;;;;5053045;28;20208;-80
2022/04/20 09:34:09;;;;;;;2.80;2.60;;;25.30;40.40;;;;;;5037178;28;20226;-82
2022/04/20 09:36:43;;;;;;;3.13;2.83;;;26.20;41.10;;;;;;5054796;28;20204;-78
2022/04/20 09:39:09;;;;;;;4.82;3.35;;;27.30;36.80;;;;;;5052462;28;20195;-81
2022/04/20 09:41:55;;;;;;;2.75;2.63;;;28.00;36.70;;;;;;5054412;28;20180;-80
2022/04/20 09:44:22;;;;;;;3.15;2.85;;;28.50;36.30;;;;;;5042568;28;20678;-78
2022/04/20 09:49:50;;;;;;;2.72;2.53;;;29.30;34.50;;;;;;5048764;28;20191;-80
2022/04/20 09:52:16;;;;;;;12.35;3.42;;;29.90;33.50;;;;;;5043569;28;20565;-79
2022/04/20 09:54:53;;;;;;;3.08;2.92;;;30.50;33.50;;;;;;5056452;28;20191;-85
2022/04/20 09:57:21;;;;;;;3.97;2.80;;;29.10;30.70;;;;;;5052387;28;20207;-81
2022/04/20 10:00:03;;;;;;;6.90;3.53;;;28.80;33.20;;;;;;5032752;28;20203;-79
2022/04/20 10:02:30;;;;;;;5.90;3.80;;;29.50;33.00;;;;;;5048769;28;20234;-80
2022/04/20 10:04:56;;;;;;;3.97;2.95;;;30.20;33.10;;;;;;5042242;28;20192;-79
2022/04/20 10:07:22;;;;;;;19.67;6.50;;;30.30;31.80;;;;;;5033901;28;20670;-79
2022/04/20 10:09:48;;;;;;;26.00;6.78;;;28.70;33.40;;;;;;5052683;28;20197;-79
2022/04/20 10:12:17;;;;;;;3.55;3.25;;;28.90;35.30;;;;;;5056899;28;20184;-82
2022/04/20 10:17:41;;;;;;;2.85;2.72;;;30.00;32.50;;;;;;5046899;28;20242;-79
2022/04/20 10:20:07;;;;;;;3.03;2.80;;;31.10;31.00;;;;;;5053101;28;20631;-74
2022/04/20 10:22:33;;;;;;;4.38;3.40;;;31.50;30.10;;;;;;5040744;28;20694;-75
2022/04/20 10:25:01;;;;;;;3.10;2.90;;;32.30;30.40;;;;;;5052511;28;20203;-76
2022/04/20 10:27:54;;;;;;;2.20;2.15;;;32.00;29.70;;;;;;5040220;28;20191;-74
2022/04/20 10:30:25;;;;;;;3.17;2.97;;;32.40;30.50;;;;;;5051244;28;20313;-74
2022/04/20 10:32:55;;;;;;;3.00;2.80;;;32.20;28.50;;;;;;5042262;28;20550;-74
2022/04/20 10:35:21;;;;;;;3.10;2.65;;;31.60;29.10;;;;;;5045056;28;20742;-77
2022/04/20 10:38:10;;;;;;;3.47;3.03;;;31.00;28.80;;;;;;5045073;28;20491;-74
2022/04/20 10:41:02;;;;;;;3.10;2.90;;;31.00;31.10;;;;;;5039282;28;20208;-74
2022/04/20 10:43:29;;;;;;;2.88;2.78;;;31.90;30.20;;;;;;5029006;28;20179;-74
2022/04/20 10:46:02;;;;;;;5.78;3.30;;;32.70;30.30;;;;;;5052331;28;20535;-74
2022/04/20 10:48:45;;;;;;;2.80;2.70;;;31.90;29.10;;;;;;5046699;28;20237;-74
2022/04/20 10:51:17;;;;;;;3.22;2.70;;;32.00;30.00;;;;;;5036719;28;20643;-74
2022/04/20 10:53:48;;;;;;;2.58;2.47;;;32.50;29.80;;;;;;5045838;28;20658;-74
2022/04/20 10:56:14;;;;;;;2.45;2.35;;;32.30;28.40;;;;;;5045627;28;20262;-75
2022/04/20 10:59:07;;;;;;;4.50;3.10;;;33.50;27.30;;;;;;5050607;28;20184;-74
2022/04/20 11:01:58;;;;;;;2.40;2.30;;;32.50;28.80;;;;;;5035488;28;20192;-75
2022/04/20 11:04:46;;;;;;;2.78;2.58;;;32.00;28.80;;;;;;5044854;28;20209;-75
2022/04/20 11:07:15;;;;;;;2.80;2.60;;;32.80;28.50;;;;;;5045897;28;20609;-75
2022/04/20 11:09:50;;;;;;;2.88;2.78;;;33.00;27.90;;;;;;5042106;28;20185;-75
2022/04/20 11:18:44;;;;;;;2.97;2.78;;;31.80;29.80;;;;;;5025983;28;20804;-76
2022/04/20 11:21:11;;;;;;;2.40;2.30;;;32.80;28.80;;;;;;5043122;28;20213;-76
2022/04/20 11:23:58;;;;;;;2.72;2.55;;;32.80;28.50;;;;;;5044738;28;20218;-74
2022/04/20 11:26:40;;;;;;;3.00;2.83;;;32.70;27.10;;;;;;5040847;28;20274;-75
2022/04/20 11:29:15;;;;;;;2.75;2.65;;;32.20;27.80;;;;;;5036887;28;20197;-76
2022/04/20 11:31:47;;;;;;;2.75;2.63;;;33.10;27.30;;;;;;5037007;28;20198;-77
2022/04/20 11:34:16;;;;;;;2.90;2.70;;;33.00;27.60;;;;;;5046702;28;20234;-77
2022/04/20 11:36:44;;;;;;;4.15;2.88;;;32.70;28.10;;;;;;5041487;28;20192;-76
2022/04/20 11:39:11;;;;;;;2.28;2.17;;;33.00;28.40;;;;;;5050712;28;20682;-80
2022/04/20 11:41:37;;;;;;;2.92;2.72;;;32.70;28.10;;;;;;5044652;28;20255;-75
2022/04/20 11:44:03;;;;;;;3.60;3.20;;;33.30;28.10;;;;;;5052335;28;20195;-72
2022/04/20 11:46:31;;;;;;;2.85;2.75;;;33.60;27.60;;;;;;5045557;28;20233;-73
2022/04/20 11:48:58;;;;;;;3.90;2.45;;;34.70;26.80;;;;;;5045381;28;20274;-74
2022/04/20 11:51:29;;;;;;;3.88;2.90;;;35.40;27.20;;;;;;5041026;28;20188;-74
2022/04/20 11:53:55;;;;;;;2.88;2.63;;;35.50;26.20;;;;;;5048624;28;20197;-75
2022/04/20 11:56:35;;;;;;;2.80;2.63;;;34.10;27.20;;;;;;5053599;28;20179;-73
2022/04/20 11:59:02;;;;;;;4.68;2.85;;;34.50;26.90;;;;;;5045327;28;20188;-75
2022/04/20 12:01:30;;;;;;;4.15;2.78;;;34.20;27.10;;;;;;5047874;28;20179;-71
2022/04/20 12:03:56;;;;;;;2.45;2.25;;;33.30;27.80;;;;;;5040760;28;20191;-71
2022/04/20 12:06:25;;;;;;;5.13;2.97;;;33.90;26.90;;;;;;5047428;28;20188;-71
2022/04/20 12:08:55;;;;;;;2.25;2.15;;;33.00;27.20;;;;;;5048449;28;20172;-71
2022/04/20 12:11:21;;;;;;;2.70;2.50;;;32.70;26.10;;;;;;5047072;28;20700;-71
2022/04/20 12:13:53;;;;;;;2.50;2.40;;;32.50;25.40;;;;;;5045649;28;20190;-73
2022/04/20 12:16:19;;;;;;;2.45;2.35;;;32.00;25.80;;;;;;5033386;28;20172;-73
2022/04/20 12:18:46;;;;;;;2.33;2.22;;;31.40;26.40;;;;;;5038370;28;20206;-73
2022/04/20 12:21:39;;;;;;;2.90;2.33;;;30.70;26.60;;;;;;5049335;28;20183;-73
2022/04/20 12:24:06;;;;;;;2.03;1.92;;;30.20;28.00;;;;;;5048121;28;20222;-73
2022/04/20 12:26:31;;;;;;;3.08;2.70;;;30.10;28.60;;;;;;5056194;28;20233;-71
2022/04/20 12:29:02;;;;;;;2.42;2.30;;;30.10;29.20;;;;;;5049735;28;20215;-71
2022/04/20 12:31:28;;;;;;;2.42;2.33;;;29.70;27.70;;;;;;5054689;28;20190;-71
2022/04/20 12:34:05;;;;;;;2.33;2.22;;;29.00;28.40;;;;;;5052107;28;20566;-71
2022/04/20 12:36:48;;;;;;;2.38;2.28;;;29.00;28.90;;;;;;5055225;28;20211;-71
2022/04/20 12:39:31;;;;;;;2.20;2.10;;;29.50;29.30;;;;;;5044993;28;20168;-71
2022/04/20 12:42:19;;;;;;;2.50;2.38;;;30.70;28.40;;;;;;5055719;28;20294;-71
2022/04/20 12:44:58;;;;;;;2.58;2.47;;;31.60;27.60;;;;;;5053895;28;20198;-71
2022/04/20 12:47:27;;;;;;;2.05;1.95;;;31.20;27.20;;;;;;5054228;28;20558;-71
2022/04/20 12:49:53;;;;;;;1.92;1.83;;;31.80;27.10;;;;;;5055224;28;20186;-71
2022/04/20 12:52:24;;;;;;;2.35;2.25;;;32.20;27.20;;;;;;5054878;28;20180;-71
2022/04/20 12:55:05;;;;;;;2.20;2.10;;;31.40;26.30;;;;;;5056996;28;20190;-71
2022/04/20 13:03:06;;;;;;;2.10;2.00;;;30.90;26.90;;;;;;5056459;28;20202;-71
2022/04/20 13:05:35;;;;;;;2.08;1.98;;;28.80;27.00;;;;;;5052665;28;20706;-71
2022/04/20 13:08:02;;;;;;;3.17;1.98;;;28.20;28.70;;;;;;5048839;28;20179;-71
2022/04/20 13:10:33;;;;;;;1.85;1.75;;;29.30;27.60;;;;;;5033672;28;20187;-71
2022/04/20 13:12:59;;;;;;;2.22;2.03;;;29.50;27.60;;;;;;5056941;28;20183;-72
2022/04/20 13:15:25;;;;;;;2.05;1.95;;;29.20;27.50;;;;;;5051863;28;20556;-71
2022/04/20 13:17:52;;;;;;;2.42;2.22;;;29.70;26.60;;;;;;5050471;28;20194;-71
2022/04/20 13:20:19;;;;;;;2.15;1.85;;;28.90;27.70;;;;;;5049477;28;20175;-71
2022/04/20 13:22:45;;;;;;;2.08;1.90;;;29.80;27.50;;;;;;5051150;28;20224;-71
2022/04/20 13:27:55;;;;;;;2.10;1.90;;;32.70;26.00;;;;;;5047811;28;20245;-71
2022/04/20 13:30:21;;;;;;;1.88;1.77;;;32.90;25.80;;;;;;5052622;28;20183;-71
2022/04/20 13:32:48;;;;;;;1.60;1.60;;;33.90;26.00;;;;;;5045429;28;20175;-71
2022/04/20 13:35:14;;;;;;;2.75;1.90;;;35.40;24.50;;;;;;5051846;28;20219;-71
2022/04/20 13:37:39;;;;;;;1.90;1.80;;;36.20;24.00;;;;;;5057519;28;20206;-71
2022/04/20 13:40:06;;;;;;;2.40;2.22;;;35.60;23.70;;;;;;5041908;28;20650;-71
2022/04/20 13:42:32;;;;;;;2.47;2.13;;;36.70;24.50;;;;;;5048585;28;20179;-72